sensor_id;sensor_type;location;lat;lon;timestamp;temperature;humidity
2050;DHT22;8478;49.208;8.806;2023-08-12T00:01:50;19.80;99.90
2050;DHT22;8478;49.208;8.806;2023-08-12T00:04:16;19.80;99.90
2050;DHT22;8478;49.208;8.806;2023-08-12T00:06:42;19.70;99.90
2050;DHT22;8478;49.208;8.806;2023-08-12T00:09:09;19.80;99.90
2050;DHT22;8478;49.208;8.806;2023-08-12T00:11:37;19.80;99.90
2050;DHT22;8478;49.208;8.806;2023-08-12T00:14:03;19.80;99.90
2050;DHT22;8478;49.208;8.806;2023-08-12T00:16:29;19.80;99.90
2050;DHT22;8478;49.208;8.806;2023-08-12T00:18:55;19.70;99.90
2050;DHT22;8478;49.208;8.806;2023-08-12T00:21:21;19.70;99.90
2050;DHT22;8478;49.208;8.806;2023-08-12T00:23:46;19.70;99.90
2050;DHT22;8478;49.208;8.806;2023-08-12T00:26:15;19.70;99.90
2050;DHT22;8478;49.208;8.806;2023-08-12T00:28:41;19.70;99.90
2050;DHT22;8478;49.208;8.806;2023-08-12T00:31:07;19.70;99.90
2050;DHT22;8478;49.208;8.806;2023-08-12T00:33:34;19.70;99.90
2050;DHT22;8478;49.208;8.806;2023-08-12T00:36:00;19.80;99.90
2050;DHT22;8478;49.208;8.806;2023-08-12T00:38:26;19.70;99.90
2050;DHT22;8478;49.208;8.806;2023-08-12T00:40:52;19.70;99.90
2050;DHT22;8478;49.208;8.806;2023-08-12T00:43:17;19.70;99.90
2050;DHT22;8478;49.208;8.806;2023-08-12T00:45:44;19.70;99.90
2050;DHT22;8478;49.208;8.806;2023-08-12T00:48:10;19.70;99.90
2050;DHT22;8478;49.208;8.806;2023-08-12T00:50:36;19.70;99.90
2050;DHT22;8478;49.208;8.806;2023-08-12T00:53:04;19.70;99.90
2050;DHT22;8478;49.208;8.806;2023-08-12T00:55:32;19.70;99.90
2050;DHT22;8478;49.208;8.806;2023-08-12T00:57:58;19.70;99.90
2050;DHT22;8478;49.208;8.806;2023-08-12T01:00:24;19.70;99.90
2050;DHT22;8478;49.208;8.806;2023-08-12T01:02:51;19.70;99.90
2050;DHT22;8478;49.208;8.806;2023-08-12T01:05:19;19.70;99.90
2050;DHT22;8478;49.208;8.806;2023-08-12T01:07:45;19.70;99.90
2050;DHT22;8478;49.208;8.806;2023-08-12T01:10:12;19.70;99.90
2050;DHT22;8478;49.208;8.806;2023-08-12T01:13:09;19.70;99.90
2050;DHT22;8478;49.208;8.806;2023-08-12T01:15:40;19.70;99.90
2050;DHT22;8478;49.208;8.806;2023-08-12T01:18:07;19.70;99.90
2050;DHT22;8478;49.208;8.806;2023-08-12T01:20:33;19.70;99.90
2050;DHT22;8478;49.208;8.806;2023-08-12T01:23:13;19.70;99.90
2050;DHT22;8478;49.208;8.806;2023-08-12T01:25:40;19.70;99.90
2050;DHT22;8478;49.208;8.806;2023-08-12T01:28:06;19.70;99.90
2050;DHT22;8478;49.208;8.806;2023-08-12T01:30:35;19.70;99.90
2050;DHT22;8478;49.208;8.806;2023-08-12T01:33:09;19.70;99.90
2050;DHT22;8478;49.208;8.806;2023-08-12T01:35:53;19.70;99.90
2050;DHT22;8478;49.208;8.806;2023-08-12T01:38:21;19.70;99.90
2050;DHT22;8478;49.208;8.806;2023-08-12T01:40:48;19.70;99.90
2050;DHT22;8478;49.208;8.806;2023-08-12T01:43:14;19.70;99.90
2050;DHT22;8478;49.208;8.806;2023-08-12T01:45:41;19.70;99.90
2050;DHT22;8478;49.208;8.806;2023-08-12T01:48:07;19.70;99.90
2050;DHT22;8478;49.208;8.806;2023-08-12T01:50:32;19.70;99.90
2050;DHT22;8478;49.208;8.806;2023-08-12T01:52:58;19.70;99.90
2050;DHT22;8478;49.208;8.806;2023-08-12T01:55:25;19.70;99.90
2050;DHT22;8478;49.208;8.806;2023-08-12T01:57:50;19.70;99.90
2050;DHT22;8478;49.208;8.806;2023-08-12T02:00:16;19.70;99.90
2050;DHT22;8478;49.208;8.806;2023-08-12T02:02:42;19.70;99.90
2050;DHT22;8478;49.208;8.806;2023-08-12T02:05:08;19.70;99.90
2050;DHT22;8478;49.208;8.806;2023-08-12T02:07:33;19.70;99.90
2050;DHT22;8478;49.208;8.806;2023-08-12T02:09:59;19.70;99.90
2050;DHT22;8478;49.208;8.806;2023-08-12T02:12:24;19.70;99.90
2050;DHT22;8478;49.208;8.806;2023-08-12T02:14:50;19.70;99.90
2050;DHT22;8478;49.208;8.806;2023-08-12T02:17:16;19.70;99.90
2050;DHT22;8478;49.208;8.806;2023-08-12T02:19:41;19.70;99.90
2050;DHT22;8478;49.208;8.806;2023-08-12T02:22:07;19.70;99.90
2050;DHT22;8478;49.208;8.806;2023-08-12T02:24:33;19.70;99.90
2050;DHT22;8478;49.208;8.806;2023-08-12T02:26:58;19.60;99.90
2050;DHT22;8478;49.208;8.806;2023-08-12T02:29:24;19.60;99.90
2050;DHT22;8478;49.208;8.806;2023-08-12T02:31:50;19.70;99.90
2050;DHT22;8478;49.208;8.806;2023-08-12T02:34:15;19.70;99.90
2050;DHT22;8478;49.208;8.806;2023-08-12T02:36:41;19.60;99.90
2050;DHT22;8478;49.208;8.806;2023-08-12T02:39:07;19.60;99.90
2050;DHT22;8478;49.208;8.806;2023-08-12T02:41:32;19.70;99.90
2050;DHT22;8478;49.208;8.806;2023-08-12T02:43:58;19.60;99.90
2050;DHT22;8478;49.208;8.806;2023-08-12T02:46:23;19.60;99.90
2050;DHT22;8478;49.208;8.806;2023-08-12T02:48:51;19.70;99.90
2050;DHT22;8478;49.208;8.806;2023-08-12T02:51:16;19.70;99.90
2050;DHT22;8478;49.208;8.806;2023-08-12T02:53:42;19.70;99.90
2050;DHT22;8478;49.208;8.806;2023-08-12T02:56:07;19.70;99.90
2050;DHT22;8478;49.208;8.806;2023-08-12T02:58:33;19.70;99.90
2050;DHT22;8478;49.208;8.806;2023-08-12T03:00:59;19.70;99.90
2050;DHT22;8478;49.208;8.806;2023-08-12T03:03:25;19.70;99.90
2050;DHT22;8478;49.208;8.806;2023-08-12T03:05:51;19.60;99.90
2050;DHT22;8478;49.208;8.806;2023-08-12T03:08:16;19.70;99.90
2050;DHT22;8478;49.208;8.806;2023-08-12T03:10:42;19.60;99.90
2050;DHT22;8478;49.208;8.806;2023-08-12T03:13:08;19.60;99.90
2050;DHT22;8478;49.208;8.806;2023-08-12T03:15:34;19.70;99.90
2050;DHT22;8478;49.208;8.806;2023-08-12T03:17:59;19.60;99.90
2050;DHT22;8478;49.208;8.806;2023-08-12T03:20:25;19.70;99.90
2050;DHT22;8478;49.208;8.806;2023-08-12T03:22:50;19.70;99.90
2050;DHT22;8478;49.208;8.806;2023-08-12T03:25:16;19.60;99.90
2050;DHT22;8478;49.208;8.806;2023-08-12T03:27:42;19.70;99.90
2050;DHT22;8478;49.208;8.806;2023-08-12T03:30:08;19.60;99.90
2050;DHT22;8478;49.208;8.806;2023-08-12T03:32:34;19.70;99.90
2050;DHT22;8478;49.208;8.806;2023-08-12T03:35:00;19.70;99.90
2050;DHT22;8478;49.208;8.806;2023-08-12T03:37:26;19.70;99.90
2050;DHT22;8478;49.208;8.806;2023-08-12T03:39:52;19.60;99.90
2050;DHT22;8478;49.208;8.806;2023-08-12T03:42:17;19.70;99.90
2050;DHT22;8478;49.208;8.806;2023-08-12T03:44:44;19.60;99.90
2050;DHT22;8478;49.208;8.806;2023-08-12T03:47:10;19.60;99.90
2050;DHT22;8478;49.208;8.806;2023-08-12T03:49:36;19.60;99.90
2050;DHT22;8478;49.208;8.806;2023-08-12T03:52:02;19.70;99.90
2050;DHT22;8478;49.208;8.806;2023-08-12T03:54:28;19.60;99.90
2050;DHT22;8478;49.208;8.806;2023-08-12T03:56:54;19.60;99.90
2050;DHT22;8478;49.208;8.806;2023-08-12T03:59:20;19.60;99.90
2050;DHT22;8478;49.208;8.806;2023-08-12T04:01:45;19.60;99.90
2050;DHT22;8478;49.208;8.806;2023-08-12T04:04:11;19.70;99.90
2050;DHT22;8478;49.208;8.806;2023-08-12T04:06:37;19.60;99.90
2050;DHT22;8478;49.208;8.806;2023-08-12T04:09:03;19.70;99.90
2050;DHT22;8478;49.208;8.806;2023-08-12T04:11:29;19.60;99.90
2050;DHT22;8478;49.208;8.806;2023-08-12T04:13:55;19.60;99.90
2050;DHT22;8478;49.208;8.806;2023-08-12T04:16:20;19.60;99.90
2050;DHT22;8478;49.208;8.806;2023-08-12T04:18:47;19.60;99.90
2050;DHT22;8478;49.208;8.806;2023-08-12T04:21:13;19.60;99.90
2050;DHT22;8478;49.208;8.806;2023-08-12T04:23:39;19.60;99.90
2050;DHT22;8478;49.208;8.806;2023-08-12T04:26:05;19.60;99.90
2050;DHT22;8478;49.208;8.806;2023-08-12T04:28:30;19.60;99.90
2050;DHT22;8478;49.208;8.806;2023-08-12T04:30:56;19.60;99.90
2050;DHT22;8478;49.208;8.806;2023-08-12T04:33:22;19.60;99.90
2050;DHT22;8478;49.208;8.806;2023-08-12T04:35:48;19.70;99.90
2050;DHT22;8478;49.208;8.806;2023-08-12T04:38:14;19.60;99.90
2050;DHT22;8478;49.208;8.806;2023-08-12T04:40:41;19.60;99.90
2050;DHT22;8478;49.208;8.806;2023-08-12T04:43:08;19.60;99.90
2050;DHT22;8478;49.208;8.806;2023-08-12T04:45:34;19.60;99.90
2050;DHT22;8478;49.208;8.806;2023-08-12T04:47:59;19.60;99.90
2050;DHT22;8478;49.208;8.806;2023-08-12T04:50:25;19.60;99.90
2050;DHT22;8478;49.208;8.806;2023-08-12T04:52:51;19.60;99.90
2050;DHT22;8478;49.208;8.806;2023-08-12T04:55:16;19.70;99.90
2050;DHT22;8478;49.208;8.806;2023-08-12T04:57:42;19.60;99.90
2050;DHT22;8478;49.208;8.806;2023-08-12T05:00:08;19.60;99.90
2050;DHT22;8478;49.208;8.806;2023-08-12T05:02:34;19.60;99.90
2050;DHT22;8478;49.208;8.806;2023-08-12T05:05:00;19.60;99.90
2050;DHT22;8478;49.208;8.806;2023-08-12T05:07:26;19.60;99.90
2050;DHT22;8478;49.208;8.806;2023-08-12T05:09:52;19.60;99.90
2050;DHT22;8478;49.208;8.806;2023-08-12T05:12:18;19.60;99.90
2050;DHT22;8478;49.208;8.806;2023-08-12T05:14:44;19.60;99.90
2050;DHT22;8478;49.208;8.806;2023-08-12T05:17:10;19.60;99.90
2050;DHT22;8478;49.208;8.806;2023-08-12T05:19:35;19.70;99.90
2050;DHT22;8478;49.208;8.806;2023-08-12T05:22:01;19.60;99.90
2050;DHT22;8478;49.208;8.806;2023-08-12T05:24:27;19.70;99.90
2050;DHT22;8478;49.208;8.806;2023-08-12T05:26:52;19.60;99.90
2050;DHT22;8478;49.208;8.806;2023-08-12T05:29:18;19.60;99.90
2050;DHT22;8478;49.208;8.806;2023-08-12T05:31:43;19.60;99.90
2050;DHT22;8478;49.208;8.806;2023-08-12T05:34:09;19.60;99.90
2050;DHT22;8478;49.208;8.806;2023-08-12T05:36:35;19.60;99.90
2050;DHT22;8478;49.208;8.806;2023-08-12T05:39:02;19.60;99.90
2050;DHT22;8478;49.208;8.806;2023-08-12T05:41:28;19.70;99.90
2050;DHT22;8478;49.208;8.806;2023-08-12T05:43:54;19.60;99.90
2050;DHT22;8478;49.208;8.806;2023-08-12T05:46:20;19.60;99.90
2050;DHT22;8478;49.208;8.806;2023-08-12T05:48:46;19.60;99.90
2050;DHT22;8478;49.208;8.806;2023-08-12T05:51:11;19.60;99.90
2050;DHT22;8478;49.208;8.806;2023-08-12T05:53:37;19.60;99.90
2050;DHT22;8478;49.208;8.806;2023-08-12T05:56:03;19.60;99.90
2050;DHT22;8478;49.208;8.806;2023-08-12T05:58:29;19.60;99.90
2050;DHT22;8478;49.208;8.806;2023-08-12T06:00:55;19.60;99.90
2050;DHT22;8478;49.208;8.806;2023-08-12T06:03:20;19.70;99.90
2050;DHT22;8478;49.208;8.806;2023-08-12T06:05:47;19.60;99.90
2050;DHT22;8478;49.208;8.806;2023-08-12T06:08:13;19.60;99.90
2050;DHT22;8478;49.208;8.806;2023-08-12T06:10:39;19.70;99.90
2050;DHT22;8478;49.208;8.806;2023-08-12T06:13:05;19.60;99.90
2050;DHT22;8478;49.208;8.806;2023-08-12T06:15:31;19.60;99.90
2050;DHT22;8478;49.208;8.806;2023-08-12T06:17:57;19.60;99.90
2050;DHT22;8478;49.208;8.806;2023-08-12T06:20:23;19.60;99.90
2050;DHT22;8478;49.208;8.806;2023-08-12T06:22:50;19.70;99.90
2050;DHT22;8478;49.208;8.806;2023-08-12T06:25:16;19.70;99.90
2050;DHT22;8478;49.208;8.806;2023-08-12T06:27:43;19.70;99.90
2050;DHT22;8478;49.208;8.806;2023-08-12T06:30:09;19.70;99.90
2050;DHT22;8478;49.208;8.806;2023-08-12T06:32:35;19.70;99.90
2050;DHT22;8478;49.208;8.806;2023-08-12T06:35:01;19.70;99.90
2050;DHT22;8478;49.208;8.806;2023-08-12T06:37:27;19.70;99.90
2050;DHT22;8478;49.208;8.806;2023-08-12T06:39:52;19.60;99.90
2050;DHT22;8478;49.208;8.806;2023-08-12T06:42:18;19.70;99.90
2050;DHT22;8478;49.208;8.806;2023-08-12T06:44:45;19.70;99.90
2050;DHT22;8478;49.208;8.806;2023-08-12T06:47:10;19.70;99.90
2050;DHT22;8478;49.208;8.806;2023-08-12T06:49:36;19.70;99.90
2050;DHT22;8478;49.208;8.806;2023-08-12T06:52:02;19.70;99.90
2050;DHT22;8478;49.208;8.806;2023-08-12T06:54:28;19.70;99.90
2050;DHT22;8478;49.208;8.806;2023-08-12T06:56:53;19.70;99.90
2050;DHT22;8478;49.208;8.806;2023-08-12T06:59:19;19.70;99.90
2050;DHT22;8478;49.208;8.806;2023-08-12T07:01:45;19.70;99.90
2050;DHT22;8478;49.208;8.806;2023-08-12T07:04:10;19.70;99.90
2050;DHT22;8478;49.208;8.806;2023-08-12T07:06:36;19.70;99.90
2050;DHT22;8478;49.208;8.806;2023-08-12T07:09:02;19.70;99.90
2050;DHT22;8478;49.208;8.806;2023-08-12T07:11:28;19.70;99.90
2050;DHT22;8478;49.208;8.806;2023-08-12T07:13:54;19.70;99.90
2050;DHT22;8478;49.208;8.806;2023-08-12T07:16:20;19.70;99.90
2050;DHT22;8478;49.208;8.806;2023-08-12T07:18:45;19.70;99.90
2050;DHT22;8478;49.208;8.806;2023-08-12T07:21:11;19.70;99.90
2050;DHT22;8478;49.208;8.806;2023-08-12T07:23:36;19.70;99.90
2050;DHT22;8478;49.208;8.806;2023-08-12T07:26:02;19.70;99.90
2050;DHT22;8478;49.208;8.806;2023-08-12T07:28:28;19.70;99.90
2050;DHT22;8478;49.208;8.806;2023-08-12T07:30:53;19.70;99.90
2050;DHT22;8478;49.208;8.806;2023-08-12T07:33:20;19.70;99.90
2050;DHT22;8478;49.208;8.806;2023-08-12T07:35:46;19.80;99.90
2050;DHT22;8478;49.208;8.806;2023-08-12T07:38:12;19.70;99.90
2050;DHT22;8478;49.208;8.806;2023-08-12T07:40:38;19.80;99.90
2050;DHT22;8478;49.208;8.806;2023-08-12T07:43:03;19.80;99.90
2050;DHT22;8478;49.208;8.806;2023-08-12T07:45:29;19.80;99.90
2050;DHT22;8478;49.208;8.806;2023-08-12T07:47:55;19.80;99.90
2050;DHT22;8478;49.208;8.806;2023-08-12T07:50:21;19.80;99.90
2050;DHT22;8478;49.208;8.806;2023-08-12T07:52:46;19.80;99.90
2050;DHT22;8478;49.208;8.806;2023-08-12T07:55:12;19.80;99.90
2050;DHT22;8478;49.208;8.806;2023-08-12T07:57:38;19.80;99.90
2050;DHT22;8478;49.208;8.806;2023-08-12T08:00:04;19.80;99.90
2050;DHT22;8478;49.208;8.806;2023-08-12T08:02:30;19.80;99.90
2050;DHT22;8478;49.208;8.806;2023-08-12T08:04:56;19.80;99.90
2050;DHT22;8478;49.208;8.806;2023-08-12T08:07:22;19.80;99.90
2050;DHT22;8478;49.208;8.806;2023-08-12T08:09:48;19.80;99.90
2050;DHT22;8478;49.208;8.806;2023-08-12T08:12:13;19.80;99.90
2050;DHT22;8478;49.208;8.806;2023-08-12T08:14:39;19.80;99.90
2050;DHT22;8478;49.208;8.806;2023-08-12T08:17:05;19.80;99.90
2050;DHT22;8478;49.208;8.806;2023-08-12T08:19:30;19.80;99.90
2050;DHT22;8478;49.208;8.806;2023-08-12T08:21:57;19.80;99.90
2050;DHT22;8478;49.208;8.806;2023-08-12T08:24:23;19.80;99.90
2050;DHT22;8478;49.208;8.806;2023-08-12T08:26:48;19.90;99.90
2050;DHT22;8478;49.208;8.806;2023-08-12T08:29:14;19.80;99.90
2050;DHT22;8478;49.208;8.806;2023-08-12T08:31:40;19.80;99.90
2050;DHT22;8478;49.208;8.806;2023-08-12T08:34:06;19.80;99.90
2050;DHT22;8478;49.208;8.806;2023-08-12T08:36:32;19.90;99.90
2050;DHT22;8478;49.208;8.806;2023-08-12T08:38:57;19.90;99.90
2050;DHT22;8478;49.208;8.806;2023-08-12T08:41:24;19.80;99.90
2050;DHT22;8478;49.208;8.806;2023-08-12T08:43:50;19.90;99.90
2050;DHT22;8478;49.208;8.806;2023-08-12T08:46:18;19.90;99.90
2050;DHT22;8478;49.208;8.806;2023-08-12T08:48:45;19.90;99.90
2050;DHT22;8478;49.208;8.806;2023-08-12T08:51:12;19.90;99.90
2050;DHT22;8478;49.208;8.806;2023-08-12T08:53:38;19.90;99.90
2050;DHT22;8478;49.208;8.806;2023-08-12T08:56:08;19.90;99.90
2050;DHT22;8478;49.208;8.806;2023-08-12T08:58:39;19.90;99.90
2050;DHT22;8478;49.208;8.806;2023-08-12T09:01:06;19.90;99.90
2050;DHT22;8478;49.208;8.806;2023-08-12T09:03:33;19.90;99.90
2050;DHT22;8478;49.208;8.806;2023-08-12T09:06:00;19.90;99.90
2050;DHT22;8478;49.208;8.806;2023-08-12T09:08:27;19.90;99.90
2050;DHT22;8478;49.208;8.806;2023-08-12T09:10:55;20.00;99.90
2050;DHT22;8478;49.208;8.806;2023-08-12T09:13:22;19.90;99.90
2050;DHT22;8478;49.208;8.806;2023-08-12T09:15:47;20.00;99.90
2050;DHT22;8478;49.208;8.806;2023-08-12T09:18:13;20.00;99.90
2050;DHT22;8478;49.208;8.806;2023-08-12T09:20:39;20.00;99.90
2050;DHT22;8478;49.208;8.806;2023-08-12T09:23:04;20.00;99.90
2050;DHT22;8478;49.208;8.806;2023-08-12T09:25:30;20.00;99.90
2050;DHT22;8478;49.208;8.806;2023-08-12T09:27:59;20.00;99.90
2050;DHT22;8478;49.208;8.806;2023-08-12T09:30:26;20.00;99.90
2050;DHT22;8478;49.208;8.806;2023-08-12T09:33:01;20.00;99.90
2050;DHT22;8478;49.208;8.806;2023-08-12T09:35:33;20.00;99.90
2050;DHT22;8478;49.208;8.806;2023-08-12T09:38:00;20.00;99.90
2050;DHT22;8478;49.208;8.806;2023-08-12T09:40:26;20.00;99.90
2050;DHT22;8478;49.208;8.806;2023-08-12T09:42:52;20.00;99.90
2050;DHT22;8478;49.208;8.806;2023-08-12T09:45:18;20.00;99.90
2050;DHT22;8478;49.208;8.806;2023-08-12T09:47:46;20.30;99.90
2050;DHT22;8478;49.208;8.806;2023-08-12T09:50:12;20.50;99.90
2050;DHT22;8478;49.208;8.806;2023-08-12T09:52:39;20.70;99.90
2050;DHT22;8478;49.208;8.806;2023-08-12T09:55:07;20.80;99.90
2050;DHT22;8478;49.208;8.806;2023-08-12T09:57:36;20.90;99.90
2050;DHT22;8478;49.208;8.806;2023-08-12T10:00:04;21.00;99.90
2050;DHT22;8478;49.208;8.806;2023-08-12T10:02:38;21.10;99.90
2050;DHT22;8478;49.208;8.806;2023-08-12T10:05:05;21.10;99.90
2050;DHT22;8478;49.208;8.806;2023-08-12T10:07:32;21.20;99.90
2050;DHT22;8478;49.208;8.806;2023-08-12T10:09:58;21.20;99.90
2050;DHT22;8478;49.208;8.806;2023-08-12T10:12:24;21.20;99.90
2050;DHT22;8478;49.208;8.806;2023-08-12T10:14:50;21.30;99.90
2050;DHT22;8478;49.208;8.806;2023-08-12T10:17:18;21.30;99.90
2050;DHT22;8478;49.208;8.806;2023-08-12T10:19:44;21.30;99.90
2050;DHT22;8478;49.208;8.806;2023-08-12T10:29:30;21.60;99.90
2050;DHT22;8478;49.208;8.806;2023-08-12T10:36:57;21.60;99.90
2050;DHT22;8478;49.208;8.806;2023-08-12T10:39:32;21.50;99.90
2050;DHT22;8478;49.208;8.806;2023-08-12T10:41:58;21.50;99.90
2050;DHT22;8478;49.208;8.806;2023-08-12T10:44:38;21.60;99.90
2050;DHT22;8478;49.208;8.806;2023-08-12T10:47:09;21.60;99.90
2050;DHT22;8478;49.208;8.806;2023-08-12T10:49:43;21.70;99.90
2050;DHT22;8478;49.208;8.806;2023-08-12T10:52:30;21.80;99.90
2050;DHT22;8478;49.208;8.806;2023-08-12T10:57:41;21.80;99.90
2050;DHT22;8478;49.208;8.806;2023-08-12T11:00:13;21.90;99.90
2050;DHT22;8478;49.208;8.806;2023-08-12T11:02:39;21.90;99.90
2050;DHT22;8478;49.208;8.806;2023-08-12T11:05:12;21.80;99.90
2050;DHT22;8478;49.208;8.806;2023-08-12T11:07:43;21.80;99.90
2050;DHT22;8478;49.208;8.806;2023-08-12T11:12:39;21.90;99.90
2050;DHT22;8478;49.208;8.806;2023-08-12T11:15:06;21.90;99.90
2050;DHT22;8478;49.208;8.806;2023-08-12T11:17:37;21.90;99.90
2050;DHT22;8478;49.208;8.806;2023-08-12T11:20:08;22.00;99.90
2050;DHT22;8478;49.208;8.806;2023-08-12T11:22:43;21.90;99.90
2050;DHT22;8478;49.208;8.806;2023-08-12T11:25:11;21.90;99.90
2050;DHT22;8478;49.208;8.806;2023-08-12T11:30:04;21.60;99.90
2050;DHT22;8478;49.208;8.806;2023-08-12T11:32:30;21.50;99.90
2050;DHT22;8478;49.208;8.806;2023-08-12T11:34:56;21.40;99.90
2050;DHT22;8478;49.208;8.806;2023-08-12T11:37:22;21.40;99.90
2050;DHT22;8478;49.208;8.806;2023-08-12T11:39:47;21.30;99.90
2050;DHT22;8478;49.208;8.806;2023-08-12T11:42:13;21.30;99.90
2050;DHT22;8478;49.208;8.806;2023-08-12T11:44:40;21.30;99.90
2050;DHT22;8478;49.208;8.806;2023-08-12T11:47:07;21.40;99.90
2050;DHT22;8478;49.208;8.806;2023-08-12T11:49:33;21.50;99.90
2050;DHT22;8478;49.208;8.806;2023-08-12T11:51:58;21.50;99.90
2050;DHT22;8478;49.208;8.806;2023-08-12T11:54:24;21.60;99.90
2050;DHT22;8478;49.208;8.806;2023-08-12T11:56:51;21.70;99.90
2050;DHT22;8478;49.208;8.806;2023-08-12T11:59:17;21.70;99.90
2050;DHT22;8478;49.208;8.806;2023-08-12T12:01:46;21.70;99.90
2050;DHT22;8478;49.208;8.806;2023-08-12T12:04:14;21.60;99.90
2050;DHT22;8478;49.208;8.806;2023-08-12T12:06:40;21.60;99.90
2050;DHT22;8478;49.208;8.806;2023-08-12T12:09:07;21.60;99.90
2050;DHT22;8478;49.208;8.806;2023-08-12T12:11:37;21.60;99.90
2050;DHT22;8478;49.208;8.806;2023-08-12T12:14:03;21.60;99.90
2050;DHT22;8478;49.208;8.806;2023-08-12T12:16:59;21.60;99.90
2050;DHT22;8478;49.208;8.806;2023-08-12T12:19:24;21.60;99.90
2050;DHT22;8478;49.208;8.806;2023-08-12T12:21:53;21.60;99.90
2050;DHT22;8478;49.208;8.806;2023-08-12T12:24:19;21.60;99.90
2050;DHT22;8478;49.208;8.806;2023-08-12T12:26:46;21.70;99.90
2050;DHT22;8478;49.208;8.806;2023-08-12T12:29:12;21.70;99.90
2050;DHT22;8478;49.208;8.806;2023-08-12T12:31:39;21.70;99.90
2050;DHT22;8478;49.208;8.806;2023-08-12T12:34:06;21.60;99.90
2050;DHT22;8478;49.208;8.806;2023-08-12T12:36:36;21.50;99.90
2050;DHT22;8478;49.208;8.806;2023-08-12T12:39:05;21.50;99.90
2050;DHT22;8478;49.208;8.806;2023-08-12T12:41:31;21.40;99.90
2050;DHT22;8478;49.208;8.806;2023-08-12T12:43:56;21.40;99.90
2050;DHT22;8478;49.208;8.806;2023-08-12T12:46:22;21.50;99.90
2050;DHT22;8478;49.208;8.806;2023-08-12T12:48:48;21.60;99.90
2050;DHT22;8478;49.208;8.806;2023-08-12T12:51:14;21.60;99.90
2050;DHT22;8478;49.208;8.806;2023-08-12T12:53:41;21.70;99.90
2050;DHT22;8478;49.208;8.806;2023-08-12T12:56:06;21.70;99.90
2050;DHT22;8478;49.208;8.806;2023-08-12T12:58:33;21.70;99.90
2050;DHT22;8478;49.208;8.806;2023-08-12T13:01:02;21.70;99.90
2050;DHT22;8478;49.208;8.806;2023-08-12T13:03:29;21.80;99.90
2050;DHT22;8478;49.208;8.806;2023-08-12T13:05:56;21.70;99.90
2050;DHT22;8478;49.208;8.806;2023-08-12T13:08:21;21.70;99.90
2050;DHT22;8478;49.208;8.806;2023-08-12T13:10:47;21.70;99.90
2050;DHT22;8478;49.208;8.806;2023-08-12T13:13:14;21.80;99.90
2050;DHT22;8478;49.208;8.806;2023-08-12T13:15:43;21.80;99.90
2050;DHT22;8478;49.208;8.806;2023-08-12T13:18:10;21.80;99.90
2050;DHT22;8478;49.208;8.806;2023-08-12T13:20:36;21.80;99.90
2050;DHT22;8478;49.208;8.806;2023-08-12T13:23:02;21.80;99.90
2050;DHT22;8478;49.208;8.806;2023-08-12T13:25:29;21.80;99.90
2050;DHT22;8478;49.208;8.806;2023-08-12T13:27:55;21.80;99.90
2050;DHT22;8478;49.208;8.806;2023-08-12T13:30:21;21.80;99.90
2050;DHT22;8478;49.208;8.806;2023-08-12T13:32:47;21.90;99.90
2050;DHT22;8478;49.208;8.806;2023-08-12T13:35:12;21.80;99.90
2050;DHT22;8478;49.208;8.806;2023-08-12T13:37:38;21.90;99.90
2050;DHT22;8478;49.208;8.806;2023-08-12T13:40:04;21.90;99.90
2050;DHT22;8478;49.208;8.806;2023-08-12T13:42:30;22.00;99.90
2050;DHT22;8478;49.208;8.806;2023-08-12T13:44:56;22.00;99.90
2050;DHT22;8478;49.208;8.806;2023-08-12T13:47:21;21.90;99.90
2050;DHT22;8478;49.208;8.806;2023-08-12T13:49:47;21.90;99.90
2050;DHT22;8478;49.208;8.806;2023-08-12T13:52:13;21.90;99.90
2050;DHT22;8478;49.208;8.806;2023-08-12T13:54:38;22.00;99.90
2050;DHT22;8478;49.208;8.806;2023-08-12T13:57:04;22.00;99.90
2050;DHT22;8478;49.208;8.806;2023-08-12T13:59:30;22.00;99.90
2050;DHT22;8478;49.208;8.806;2023-08-12T14:01:55;22.00;99.90
2050;DHT22;8478;49.208;8.806;2023-08-12T14:04:21;22.10;99.90
2050;DHT22;8478;49.208;8.806;2023-08-12T14:06:47;22.20;99.90
2050;DHT22;8478;49.208;8.806;2023-08-12T14:09:12;22.20;99.90
2050;DHT22;8478;49.208;8.806;2023-08-12T14:11:40;22.10;99.90
2050;DHT22;8478;49.208;8.806;2023-08-12T14:14:05;22.10;99.90
2050;DHT22;8478;49.208;8.806;2023-08-12T14:16:31;22.10;99.90
2050;DHT22;8478;49.208;8.806;2023-08-12T14:18:57;22.00;99.90
2050;DHT22;8478;49.208;8.806;2023-08-12T14:21:23;22.00;99.90
2050;DHT22;8478;49.208;8.806;2023-08-12T14:23:48;22.00;99.90
2050;DHT22;8478;49.208;8.806;2023-08-12T14:26:14;22.00;99.90
2050;DHT22;8478;49.208;8.806;2023-08-12T14:28:40;22.00;99.90
2050;DHT22;8478;49.208;8.806;2023-08-12T14:31:05;22.00;99.90
2050;DHT22;8478;49.208;8.806;2023-08-12T14:33:31;22.00;99.90
2050;DHT22;8478;49.208;8.806;2023-08-12T14:36:00;21.90;99.90
2050;DHT22;8478;49.208;8.806;2023-08-12T14:38:25;22.00;99.90
2050;DHT22;8478;49.208;8.806;2023-08-12T14:40:51;21.90;99.90
2050;DHT22;8478;49.208;8.806;2023-08-12T14:43:17;21.90;99.90
2050;DHT22;8478;49.208;8.806;2023-08-12T14:45:46;21.90;99.90
2050;DHT22;8478;49.208;8.806;2023-08-12T14:48:12;21.90;99.90
2050;DHT22;8478;49.208;8.806;2023-08-12T14:50:38;21.80;99.90
2050;DHT22;8478;49.208;8.806;2023-08-12T14:53:04;21.80;99.90
2050;DHT22;8478;49.208;8.806;2023-08-12T14:55:29;21.70;99.90
2050;DHT22;8478;49.208;8.806;2023-08-12T14:57:55;21.70;99.90
2050;DHT22;8478;49.208;8.806;2023-08-12T15:00:21;21.70;99.90
2050;DHT22;8478;49.208;8.806;2023-08-12T15:02:46;21.60;99.90
2050;DHT22;8478;49.208;8.806;2023-08-12T15:05:12;21.60;99.90
2050;DHT22;8478;49.208;8.806;2023-08-12T15:07:38;21.60;99.90
2050;DHT22;8478;49.208;8.806;2023-08-12T15:10:04;21.60;99.90
2050;DHT22;8478;49.208;8.806;2023-08-12T15:12:30;21.60;99.90
2050;DHT22;8478;49.208;8.806;2023-08-12T15:14:56;21.60;99.90
2050;DHT22;8478;49.208;8.806;2023-08-12T15:17:22;21.60;99.90
2050;DHT22;8478;49.208;8.806;2023-08-12T15:19:47;21.60;99.90
2050;DHT22;8478;49.208;8.806;2023-08-12T15:22:13;21.60;99.90
2050;DHT22;8478;49.208;8.806;2023-08-12T15:24:39;21.50;99.90
2050;DHT22;8478;49.208;8.806;2023-08-12T15:27:05;21.50;99.90
2050;DHT22;8478;49.208;8.806;2023-08-12T15:29:31;21.50;99.90
2050;DHT22;8478;49.208;8.806;2023-08-12T15:31:56;21.50;99.90
2050;DHT22;8478;49.208;8.806;2023-08-12T15:34:23;21.50;99.90
2050;DHT22;8478;49.208;8.806;2023-08-12T15:36:50;21.50;99.90
2050;DHT22;8478;49.208;8.806;2023-08-12T15:39:16;21.50;99.90
2050;DHT22;8478;49.208;8.806;2023-08-12T15:41:43;21.50;99.90
2050;DHT22;8478;49.208;8.806;2023-08-12T15:44:12;21.50;99.90
2050;DHT22;8478;49.208;8.806;2023-08-12T15:46:39;21.50;99.90
2050;DHT22;8478;49.208;8.806;2023-08-12T15:49:05;21.50;99.90
2050;DHT22;8478;49.208;8.806;2023-08-12T15:51:33;21.50;99.90
2050;DHT22;8478;49.208;8.806;2023-08-12T15:54:00;21.50;99.90
2050;DHT22;8478;49.208;8.806;2023-08-12T15:56:26;21.50;99.90
2050;DHT22;8478;49.208;8.806;2023-08-12T15:58:53;21.50;99.90
2050;DHT22;8478;49.208;8.806;2023-08-12T16:01:18;21.50;99.90
2050;DHT22;8478;49.208;8.806;2023-08-12T16:03:47;21.50;99.90
2050;DHT22;8478;49.208;8.806;2023-08-12T16:06:12;21.50;99.90
2050;DHT22;8478;49.208;8.806;2023-08-12T16:08:38;21.50;99.90
2050;DHT22;8478;49.208;8.806;2023-08-12T16:11:04;21.40;99.90
2050;DHT22;8478;49.208;8.806;2023-08-12T16:13:30;21.40;99.90
2050;DHT22;8478;49.208;8.806;2023-08-12T16:15:57;21.40;99.90
2050;DHT22;8478;49.208;8.806;2023-08-12T16:18:24;21.40;99.90